createdAt,value
2023-02-19T00:01:45.025Z,2.30
2023-02-19T00:06:48.320Z,2.32
2023-02-19T00:11:53.295Z,2.33
2023-02-19T00:16:55.738Z,2.36
2023-02-19T00:21:58.310Z,2.34
2023-02-19T00:27:00.852Z,2.39
2023-02-19T00:32:06.432Z,2.43
2023-02-19T00:37:08.940Z,2.41
2023-02-19T00:42:11.601Z,2.32
2023-02-19T00:47:16.525Z,2.27
2023-02-19T00:52:19.025Z,2.21
2023-02-19T00:57:21.509Z,2.18
2023-02-19T01:02:23.994Z,2.03
2023-02-19T01:07:26.478Z,1.97
2023-02-19T01:12:29.127Z,1.81
2023-02-19T01:17:31.671Z,1.95
2023-02-19T01:22:34.164Z,1.98
2023-02-19T01:27:36.692Z,2.02
2023-02-19T01:32:39.288Z,2.04
2023-02-19T01:37:41.896Z,2.06
2023-02-19T01:42:45.182Z,2.15
2023-02-19T01:47:54.945Z,2.22
2023-02-19T01:52:57.711Z,2.24
2023-02-19T01:58:02.186Z,2.09
2023-02-19T02:10:02.945Z,2.13
2023-02-19T02:15:06.149Z,2.00
2023-02-19T02:20:26.654Z,1.96
2023-02-19T02:26:14.029Z,1.88
2023-02-19T02:31:16.597Z,1.65
2023-02-19T02:36:26.056Z,1.47
2023-02-19T02:42:31.024Z,1.23
2023-02-19T02:47:46.998Z,1.20
2023-02-19T02:53:11.604Z,1.25
2023-02-19T02:58:16.473Z,1.30
2023-02-19T03:03:26.572Z,1.33
2023-02-19T03:08:42.676Z,1.33
2023-02-19T03:14:03.881Z,1.34
2023-02-19T03:19:20.069Z,1.33
2023-02-19T03:24:57.862Z,1.39
2023-02-19T03:30:08.838Z,1.35
2023-02-19T03:35:28.249Z,1.48
2023-02-19T03:40:37.448Z,1.28
2023-02-19T03:46:02.864Z,1.35
2023-02-19T03:51:28.669Z,1.43
2023-02-19T03:56:52.744Z,1.54
2023-02-19T04:02:12.472Z,1.47
2023-02-19T04:07:18.887Z,1.54
2023-02-19T04:12:23.611Z,1.54
2023-02-19T04:17:39.126Z,1.55
2023-02-19T04:22:42.213Z,1.58
2023-02-19T04:27:46.523Z,1.66
2023-02-19T04:32:49.051Z,1.80
2023-02-19T04:37:51.674Z,1.90
2023-02-19T04:42:54.234Z,1.83
2023-02-19T04:47:59.236Z,1.82
2023-02-19T04:53:01.708Z,1.79
2023-02-19T04:58:06.465Z,1.86
2023-02-19T05:03:08.844Z,1.98
2023-02-19T05:08:11.369Z,2.06
2023-02-19T05:13:13.983Z,2.23
2023-02-19T05:18:16.900Z,2.35
2023-02-19T05:23:20.854Z,2.61
2023-02-19T05:28:28.881Z,2.68
2023-02-19T05:33:31.346Z,2.88
2023-02-19T05:38:33.862Z,2.94
2023-02-19T05:43:37.721Z,3.07
2023-02-19T05:48:40.193Z,3.26
2023-02-19T05:53:43.730Z,3.51
2023-02-19T05:58:46.267Z,3.67
2023-02-19T06:03:48.834Z,3.79
2023-02-19T06:08:51.470Z,3.86
2023-02-19T06:13:53.990Z,3.74
2023-02-19T06:18:56.533Z,3.64
2023-02-19T06:23:59.849Z,3.81
2023-02-19T06:29:02.542Z,4.00
2023-02-19T06:34:06.264Z,4.14
2023-02-19T06:39:09.989Z,3.97
2023-02-19T06:44:12.475Z,4.15
2023-02-19T06:49:15.700Z,4.12
2023-02-19T06:54:18.336Z,4.32
2023-02-19T06:59:21.059Z,4.18
2023-02-19T07:04:26.245Z,4.28
2023-02-19T07:09:28.916Z,4.27
2023-02-19T07:14:31.709Z,4.53
2023-02-19T07:19:34.268Z,4.52
2023-02-19T07:24:37.706Z,4.54
2023-02-19T07:29:40.278Z,4.57
2023-02-19T07:34:42.859Z,4.72
2023-02-19T07:39:45.313Z,4.70
2023-02-19T07:44:47.808Z,4.78
2023-02-19T07:49:50.430Z,4.85
2023-02-19T07:54:53.035Z,4.72
2023-02-19T07:59:55.610Z,4.78
2023-02-19T08:04:58.294Z,4.73
2023-02-19T08:10:19.346Z,4.66
2023-02-19T08:15:22.550Z,4.83
2023-02-19T08:20:25.160Z,4.76
2023-02-19T08:25:27.738Z,5.00
2023-02-19T08:30:31.891Z,5.02
2023-02-19T08:35:38.508Z,5.11
2023-02-19T08:40:41.466Z,4.92
2023-02-19T08:45:45.745Z,4.93
2023-02-19T08:50:57.401Z,5.08
2023-02-19T08:56:04.459Z,5.14
2023-02-19T09:01:13.919Z,4.96
2023-02-19T09:06:22.712Z,4.96
2023-02-19T09:11:25.300Z,4.86
2023-02-19T09:16:27.816Z,4.94
2023-02-19T09:21:30.433Z,4.87
2023-02-19T09:33:19.208Z,5.39
2023-02-19T09:38:22.324Z,5.25
2023-02-19T09:43:29.296Z,4.95
2023-02-19T09:48:32.835Z,4.89
2023-02-19T09:53:44.510Z,4.88
2023-02-19T09:58:50.689Z,5.08
2023-02-19T10:04:04.695Z,5.11
2023-02-19T10:09:20.374Z,4.90
2023-02-19T10:14:39.472Z,5.03
2023-02-19T10:19:42.074Z,5.18
2023-02-19T10:24:46.043Z,5.40
2023-02-19T10:29:50.753Z,5.52
2023-02-19T10:35:14.478Z,5.83
2023-02-19T10:40:26.878Z,5.80
2023-02-19T10:45:48.407Z,5.66
2023-02-19T10:51:05.170Z,5.31
2023-02-19T10:56:10.553Z,5.20
2023-02-19T11:01:16.208Z,5.22
2023-02-19T11:06:21.997Z,5.18
2023-02-19T11:11:44.664Z,5.13
2023-02-19T11:16:49.880Z,5.02
2023-02-19T11:21:54.254Z,4.91
2023-02-19T11:26:58.716Z,4.90
2023-02-19T11:32:27.951Z,4.78
2023-02-19T11:37:30.527Z,4.77
2023-02-19T11:42:45.528Z,4.89
2023-02-19T11:48:06.387Z,4.79
2023-02-19T11:53:35.132Z,4.95
2023-02-19T11:59:20.645Z,4.95
2023-02-19T12:04:41.255Z,4.95
2023-02-19T12:09:55.621Z,4.81
2023-02-19T12:15:16.346Z,4.77
2023-02-19T12:20:41.842Z,4.64
2023-02-19T12:25:52.934Z,4.59
2023-02-19T12:31:13.922Z,4.63
2023-02-19T12:36:37.713Z,4.59
2023-02-19T12:42:15.895Z,4.48
2023-02-19T12:47:23.678Z,4.53
2023-02-19T12:52:37.048Z,4.54
2023-02-19T12:57:40.300Z,4.63
2023-02-19T13:02:42.906Z,4.67
2023-02-19T13:07:50.375Z,4.75
2023-02-19T13:12:59.722Z,4.67
2023-02-19T13:18:05.877Z,4.64
2023-02-19T13:23:38.164Z,4.58
2023-02-19T13:28:43.510Z,4.54
2023-02-19T13:33:54.770Z,4.48
2023-02-19T13:38:59.800Z,4.43
2023-02-19T13:44:05.496Z,4.36
2023-02-19T13:49:23.282Z,4.29
2023-02-19T13:54:27.354Z,4.27
2023-02-19T13:59:38.159Z,4.20
2023-02-19T14:04:50.601Z,4.05
2023-02-19T14:09:54.146Z,4.02
2023-02-19T14:14:57.684Z,3.95
2023-02-19T14:20:22.879Z,3.96
2023-02-19T14:25:31.409Z,3.93
2023-02-19T14:30:40.915Z,3.81
2023-02-19T14:35:46.639Z,3.78
2023-02-19T14:40:50.912Z,3.58
2023-02-19T14:46:34.603Z,3.44
2023-02-19T14:51:41.056Z,3.29
2023-02-19T14:56:47.954Z,3.35
2023-02-19T15:02:01.966Z,3.29
2023-02-19T15:07:08.828Z,3.24
2023-02-19T15:12:35.452Z,3.21
2023-02-19T15:17:44.055Z,3.17
2023-02-19T15:22:47.018Z,3.11
2023-02-19T15:27:51.193Z,3.17
2023-02-19T15:32:56.912Z,3.28
2023-02-19T15:38:01.253Z,3.27
2023-02-19T15:43:05.221Z,3.30
2023-02-19T15:48:22.360Z,3.19
2023-02-19T15:53:30.473Z,3.08
2023-02-19T16:04:13.368Z,2.91
2023-02-19T16:09:24.619Z,2.84
2023-02-19T16:14:35.317Z,2.71
2023-02-19T16:19:46.993Z,2.63
2023-02-19T16:24:52.807Z,2.52
2023-02-19T16:29:55.507Z,2.30
2023-02-19T16:34:58.232Z,2.06
2023-02-19T16:40:16.636Z,2.26
2023-02-19T16:45:19.415Z,2.12
2023-02-19T16:50:41.766Z,2.04
2023-02-19T16:55:44.318Z,2.04
2023-02-19T17:00:46.839Z,1.99
2023-02-19T17:05:51.023Z,1.96
2023-02-19T17:10:56.429Z,1.93
2023-02-19T17:15:59.436Z,1.92
2023-02-19T17:21:11.388Z,1.98
2023-02-19T17:26:22.970Z,1.98
2023-02-19T17:31:25.491Z,1.96
2023-02-19T17:36:31.491Z,2.06
2023-02-19T17:41:35.067Z,2.05
2023-02-19T17:46:38.613Z,2.07
2023-02-19T17:51:41.254Z,2.00
2023-02-19T17:56:46.393Z,2.06
2023-02-19T18:01:48.849Z,1.84
2023-02-19T18:06:53.801Z,1.99
2023-02-19T18:11:56.524Z,1.89
2023-02-19T18:16:59.533Z,2.00
2023-02-19T18:22:04.252Z,2.01
2023-02-19T18:27:08.018Z,1.98
2023-02-19T18:32:10.802Z,1.98
2023-02-19T18:37:13.309Z,1.79
2023-02-19T18:42:16.281Z,1.62
2023-02-19T18:47:25.658Z,1.65
2023-02-19T18:52:28.686Z,1.63
2023-02-19T18:57:32.101Z,1.48
2023-02-19T19:02:47.373Z,1.43
2023-02-19T19:07:55.810Z,1.46
2023-02-19T19:13:00.786Z,1.45
2023-02-19T19:18:03.259Z,1.40
2023-02-19T19:23:06.758Z,1.34
2023-02-19T19:28:09.447Z,1.30
2023-02-19T19:33:14.042Z,1.27
2023-02-19T19:38:17.584Z,1.17
2023-02-19T19:43:20.188Z,1.30
2023-02-19T19:48:23.849Z,1.27
2023-02-19T19:53:28.926Z,1.26
2023-02-19T19:58:31.577Z,1.24
2023-02-19T20:03:34.455Z,1.20
2023-02-19T20:08:37.062Z,1.13
2023-02-19T20:13:39.613Z,1.07
2023-02-19T20:18:42.267Z,0.99
2023-02-19T20:23:47.204Z,0.97
2023-02-19T20:28:50.789Z,0.87
2023-02-19T20:33:54.536Z,0.84
2023-02-19T20:38:57.325Z,0.89
2023-02-19T20:43:59.814Z,0.79
2023-02-19T20:49:02.302Z,0.90
2023-02-19T20:54:04.748Z,0.90
2023-02-19T20:59:08.320Z,0.88
2023-02-19T21:04:11.175Z,1.03
2023-02-19T21:09:13.977Z,1.19
2023-02-19T21:14:17.438Z,1.27
2023-02-19T21:19:21.849Z,1.42
2023-02-19T21:24:42.515Z,1.57
2023-02-19T21:29:45.807Z,1.66
2023-02-19T21:34:49.149Z,1.73
2023-02-19T21:39:51.800Z,1.63
2023-02-19T21:44:56.367Z,1.51
2023-02-19T21:49:58.832Z,1.31
2023-02-19T21:55:01.386Z,1.29
2023-02-19T22:00:05.950Z,1.42
2023-02-19T22:05:08.704Z,1.42
2023-02-19T22:10:11.336Z,1.43
2023-02-19T22:15:15.379Z,1.50
2023-02-19T22:20:19.877Z,1.42
2023-02-19T22:25:22.516Z,1.37
2023-02-19T22:30:25.071Z,1.28
2023-02-19T22:35:27.636Z,1.22
2023-02-19T22:40:30.162Z,1.13
2023-02-19T22:45:32.684Z,1.18
2023-02-19T22:50:35.842Z,1.31
2023-02-19T22:55:38.337Z,1.54
2023-02-19T23:00:40.760Z,1.70
2023-02-19T23:05:43.312Z,1.67
2023-02-19T23:10:45.842Z,1.76
2023-02-19T23:15:48.323Z,1.78
2023-02-19T23:20:51.010Z,1.73
2023-02-19T23:25:54.813Z,1.78
2023-02-19T23:30:57.512Z,1.83
2023-02-19T23:36:00.114Z,1.70
2023-02-19T23:41:09.266Z,1.68
2023-02-19T23:46:17.797Z,1.59
2023-02-19T23:51:20.275Z,1.43
2023-02-19T23:56:28.073Z,1.45
